createdAt,value
2022-09-21T00:00:46.992Z,59.09
2022-09-21T00:01:46.940Z,58.98
2022-09-21T00:02:46.928Z,58.98
2022-09-21T00:03:46.914Z,59.19
2022-09-21T00:04:46.902Z,59.19
2022-09-21T00:05:46.902Z,59.19
2022-09-21T00:06:46.879Z,59.40
2022-09-21T00:07:46.860Z,59.19
2022-09-21T00:08:46.850Z,59.42
2022-09-21T00:09:46.842Z,59.22
2022-09-21T00:10:46.838Z,59.12
2022-09-21T00:11:46.842Z,59.22
2022-09-21T00:12:46.810Z,59.22
2022-09-21T00:13:46.907Z,59.63
2022-09-21T00:14:46.789Z,59.33
2022-09-21T00:15:46.770Z,59.33
2022-09-21T00:16:46.832Z,59.22
2022-09-21T00:17:46.770Z,59.12
2022-09-21T00:18:46.738Z,58.91
2022-09-21T00:19:46.719Z,59.12
2022-09-21T00:20:46.709Z,59.25
2022-09-21T00:21:46.698Z,59.14
2022-09-21T00:22:46.694Z,58.94
2022-09-21T00:23:46.701Z,58.94
2022-09-21T00:24:46.669Z,59.04
2022-09-21T00:25:46.651Z,58.94
2022-09-21T00:26:46.641Z,58.73
2022-09-21T00:27:46.628Z,59.14
2022-09-21T00:28:46.644Z,58.73
2022-09-21T00:29:46.631Z,58.53
2022-09-21T00:30:46.590Z,58.42
2022-09-21T00:31:46.608Z,58.42
2022-09-21T00:32:46.572Z,58.42
2022-09-21T00:33:46.560Z,58.63
2022-09-21T00:34:46.552Z,58.63
2022-09-21T00:35:46.560Z,58.73
2022-09-21T00:36:46.520Z,58.42
2022-09-21T00:37:46.511Z,58.63
2022-09-21T00:38:46.499Z,58.94
2022-09-21T00:39:46.488Z,59.07
2022-09-21T00:40:46.478Z,59.17
2022-09-21T00:41:46.489Z,59.28
2022-09-21T00:42:46.452Z,58.86
2022-09-21T00:43:46.458Z,58.97
2022-09-21T00:44:46.427Z,58.76
2022-09-21T00:45:46.468Z,58.97
2022-09-21T00:46:46.409Z,58.97
2022-09-21T00:47:46.417Z,58.76
2022-09-21T00:48:46.380Z,58.76
2022-09-21T00:49:46.369Z,58.65
2022-09-21T00:50:46.358Z,58.65
2022-09-21T00:51:46.348Z,58.76
2022-09-21T00:52:46.337Z,58.65
2022-09-21T00:53:46.368Z,58.97
2022-09-21T00:54:46.317Z,58.58
2022-09-21T00:55:46.298Z,58.55
2022-09-21T00:56:46.288Z,58.55
2022-09-21T00:57:46.276Z,58.25
2022-09-21T00:58:46.269Z,58.35
2022-09-21T00:59:46.278Z,58.55
2022-09-21T01:00:46.272Z,58.14
2022-09-21T01:01:46.233Z,58.65
2022-09-21T01:02:46.217Z,58.14
2022-09-21T01:03:46.198Z,58.45
2022-09-21T01:04:46.195Z,58.76
2022-09-21T01:05:46.207Z,58.65
2022-09-21T01:06:46.169Z,58.76
2022-09-21T01:07:46.158Z,58.55
2022-09-21T01:08:46.149Z,58.45
2022-09-21T01:09:46.135Z,58.65
2022-09-21T01:10:46.128Z,58.97
2022-09-21T01:11:46.127Z,58.65
2022-09-21T01:12:46.097Z,58.79
2022-09-21T01:13:46.084Z,58.69
2022-09-21T01:14:46.078Z,58.79
2022-09-21T01:15:46.065Z,58.79
2022-09-21T01:16:46.055Z,58.79
2022-09-21T01:17:46.057Z,58.48
2022-09-21T01:18:46.035Z,58.89
2022-09-21T01:19:46.016Z,58.58
2022-09-21T01:20:46.006Z,58.69
2022-09-21T01:21:45.989Z,58.69
2022-09-21T01:22:45.985Z,58.37
2022-09-21T01:23:45.988Z,58.65
2022-09-21T01:24:45.957Z,58.45
2022-09-21T01:25:45.947Z,58.04
2022-09-21T01:26:45.936Z,58.35
2022-09-21T01:27:45.917Z,58.35
2022-09-21T01:28:45.918Z,58.45
2022-09-21T01:29:45.916Z,58.35
2022-09-21T01:30:49.057Z,58.25
2022-09-21T01:31:45.907Z,58.45
2022-09-21T01:32:45.867Z,58.25
2022-09-21T01:33:45.848Z,58.35
2022-09-21T01:34:45.865Z,58.55
2022-09-21T01:35:45.827Z,58.55
2022-09-21T01:36:45.818Z,58.69
2022-09-21T01:37:45.808Z,58.79
2022-09-21T01:38:45.795Z,58.89
2022-09-21T01:39:45.785Z,58.99
2022-09-21T01:40:45.837Z,59.09
2022-09-21T01:41:52.798Z,59.30
2022-09-21T01:42:45.749Z,58.99
2022-09-21T01:43:45.739Z,58.99
2022-09-21T01:44:46.427Z,58.89
2022-09-21T01:45:45.747Z,58.89
2022-09-21T01:46:45.729Z,59.09
2022-09-21T01:47:45.690Z,59.20
2022-09-21T01:48:45.678Z,58.89
2022-09-21T01:49:45.668Z,59.51
2022-09-21T01:50:45.648Z,59.20
2022-09-21T01:51:45.646Z,59.51
2022-09-21T01:52:45.649Z,59.51
2022-09-21T01:53:45.618Z,59.72
2022-09-21T01:54:45.607Z,59.74
2022-09-21T01:55:45.608Z,59.12
2022-09-21T01:56:45.588Z,59.41
2022-09-21T01:57:45.585Z,59.41
2022-09-21T01:58:45.613Z,59.33
2022-09-21T01:59:45.557Z,59.74
2022-09-21T02:00:45.585Z,59.53
2022-09-21T02:01:45.544Z,59.64
2022-09-21T02:02:45.520Z,59.53
2022-09-21T02:03:45.507Z,59.33
2022-09-21T02:04:45.516Z,59.23
2022-09-21T02:05:45.487Z,59.23
2022-09-21T02:06:45.479Z,59.12
2022-09-21T02:07:45.465Z,59.02
2022-09-21T02:08:45.448Z,59.12
2022-09-21T02:09:45.438Z,59.41
2022-09-21T02:10:45.438Z,58.92
2022-09-21T02:11:45.416Z,59.23
2022-09-21T02:12:45.408Z,59.23
2022-09-21T02:13:45.397Z,59.02
2022-09-21T02:14:45.378Z,59.12
2022-09-21T02:15:45.507Z,59.33
2022-09-21T02:16:45.358Z,59.33
2022-09-21T02:17:45.347Z,59.44
2022-09-21T02:18:45.341Z,59.33
2022-09-21T02:19:45.327Z,59.12
2022-09-21T02:20:45.309Z,59.02
2022-09-21T02:21:45.326Z,58.92
2022-09-21T02:22:45.287Z,59.02
2022-09-21T02:23:45.277Z,59.23
2022-09-21T02:24:45.267Z,59.33
2022-09-21T02:25:45.257Z,59.33
2022-09-21T02:26:45.250Z,59.33
2022-09-21T02:27:45.257Z,59.56
2022-09-21T02:28:45.217Z,59.56
2022-09-21T02:29:45.216Z,59.36
2022-09-21T02:30:45.197Z,59.67
2022-09-21T02:31:45.187Z,59.36
2022-09-21T02:32:45.178Z,59.36
2022-09-21T02:33:45.188Z,59.46
2022-09-21T02:34:45.157Z,59.67
2022-09-21T02:35:45.156Z,59.77
2022-09-21T02:36:45.128Z,59.56
2022-09-21T02:37:45.117Z,59.36
2022-09-21T02:38:45.107Z,59.56
2022-09-21T02:39:45.116Z,59.46
2022-09-21T02:40:45.085Z,59.77
2022-09-21T02:41:45.075Z,59.56
2022-09-21T02:42:45.056Z,59.56
2022-09-21T02:43:45.057Z,59.25
2022-09-21T02:44:45.066Z,59.46
2022-09-21T02:45:45.035Z,59.56
2022-09-21T02:46:45.034Z,59.67
2022-09-21T02:47:45.007Z,59.25
2022-09-21T02:48:44.998Z,59.36
2022-09-21T02:49:44.986Z,59.36
2022-09-21T02:50:44.996Z,59.25
2022-09-21T02:51:44.966Z,58.94
2022-09-21T02:52:44.945Z,59.15
2022-09-21T02:53:44.937Z,58.94
2022-09-21T02:54:44.925Z,59.05
2022-09-21T02:55:44.925Z,59.05
2022-09-21T02:56:44.925Z,59.15
2022-09-21T02:57:44.904Z,59.05
2022-09-21T02:58:44.886Z,59.05
2022-09-21T02:59:44.873Z,59.05
2022-09-21T03:00:44.897Z,59.15
2022-09-21T03:01:44.914Z,59.15
2022-09-21T03:02:44.838Z,59.15
2022-09-21T03:03:44.825Z,59.15
2022-09-21T03:04:44.814Z,59.05
2022-09-21T03:05:44.805Z,59.15
2022-09-21T03:06:44.794Z,59.28
2022-09-21T03:07:44.804Z,59.39
2022-09-21T03:08:44.770Z,59.49
2022-09-21T03:09:44.764Z,59.49
2022-09-21T03:10:44.746Z,59.39
2022-09-21T03:11:44.744Z,59.18
2022-09-21T03:12:44.729Z,59.28
2022-09-21T03:13:44.812Z,59.39
2022-09-21T03:14:44.704Z,59.18
2022-09-21T03:15:44.716Z,59.49
2022-09-21T03:16:44.684Z,59.49
2022-09-21T03:17:44.673Z,59.39
2022-09-21T03:18:44.682Z,59.39
2022-09-21T03:19:44.654Z,59.59
2022-09-21T03:20:44.645Z,59.69
2022-09-21T03:21:44.876Z,59.80
2022-09-21T03:22:44.616Z,59.69
2022-09-21T03:23:44.604Z,59.49
2022-09-21T03:24:44.615Z,59.59
2022-09-21T03:25:44.654Z,59.72
2022-09-21T03:26:44.571Z,59.62
2022-09-21T03:27:44.574Z,59.83
2022-09-21T03:28:44.544Z,59.83
2022-09-21T03:29:44.595Z,60.03
2022-09-21T03:30:44.577Z,59.83
2022-09-21T03:31:44.524Z,59.83
2022-09-21T03:32:44.509Z,59.93
2022-09-21T03:33:44.494Z,59.72
2022-09-21T03:34:44.482Z,59.93
2022-09-21T03:35:44.476Z,59.93
2022-09-21T03:36:44.493Z,59.72
2022-09-21T03:37:44.453Z,59.93
2022-09-21T03:38:44.605Z,59.72
2022-09-21T03:39:44.445Z,60.03
2022-09-21T03:40:44.414Z,59.83
2022-09-21T03:41:44.403Z,60.03
2022-09-21T03:42:44.412Z,59.93
2022-09-21T03:43:44.385Z,59.93
2022-09-21T03:44:44.371Z,60.14
2022-09-21T03:45:44.374Z,60.24
2022-09-21T03:46:44.352Z,60.14
2022-09-21T03:47:44.342Z,60.44
2022-09-21T03:48:44.353Z,60.24
2022-09-21T03:49:44.323Z,60.34
2022-09-21T03:50:44.304Z,60.24
2022-09-21T03:51:44.293Z,60.44
2022-09-21T03:52:44.283Z,60.44
2022-09-21T03:53:44.284Z,60.78
2022-09-21T03:54:44.282Z,60.68
2022-09-21T03:55:44.256Z,60.37
2022-09-21T03:56:44.234Z,60.58
2022-09-21T03:57:44.233Z,60.58
2022-09-21T03:58:44.213Z,60.58
2022-09-21T03:59:44.240Z,60.78
2022-09-21T04:00:44.222Z,60.78
2022-09-21T04:01:44.223Z,60.58
2022-09-21T04:02:44.196Z,60.68
2022-09-21T04:03:44.163Z,60.78
2022-09-21T04:04:44.151Z,60.37
2022-09-21T04:05:44.150Z,60.37
2022-09-21T04:06:44.172Z,60.58
2022-09-21T04:07:44.126Z,60.68
2022-09-21T04:08:44.103Z,60.47
2022-09-21T04:09:44.099Z,60.58
2022-09-21T04:10:44.096Z,60.68
2022-09-21T04:11:44.082Z,60.37
2022-09-21T04:12:44.080Z,60.58
2022-09-21T04:13:44.077Z,60.47
2022-09-21T04:14:44.041Z,60.37
2022-09-21T04:15:44.093Z,60.47
2022-09-21T04:16:44.021Z,60.58
2022-09-21T04:17:44.031Z,60.47
2022-09-21T04:18:43.991Z,60.68
2022-09-21T04:19:43.991Z,60.78
2022-09-21T04:20:43.972Z,60.60
2022-09-21T04:21:43.970Z,60.71
2022-09-21T04:22:43.951Z,61.02
2022-09-21T04:23:43.961Z,60.81
2022-09-21T04:24:43.931Z,61.12
2022-09-21T04:25:43.931Z,60.91
2022-09-21T04:26:43.910Z,61.22
2022-09-21T04:27:43.899Z,61.22
2022-09-21T04:28:43.881Z,60.71
2022-09-21T04:29:43.899Z,60.60
2022-09-21T04:30:43.907Z,60.50
2022-09-21T04:31:43.858Z,60.71
2022-09-21T04:32:43.841Z,60.50
2022-09-21T04:33:43.832Z,60.71
2022-09-21T04:34:43.840Z,60.60
2022-09-21T04:35:43.820Z,60.60
2022-09-21T04:36:43.790Z,60.81
2022-09-21T04:37:43.791Z,60.81
2022-09-21T04:38:43.770Z,60.71
2022-09-21T04:39:43.773Z,60.71
2022-09-21T04:40:43.774Z,60.50
2022-09-21T04:41:43.742Z,60.30
2022-09-21T04:42:43.729Z,60.50
2022-09-21T04:43:43.720Z,60.27
2022-09-21T04:44:43.708Z,60.47
2022-09-21T04:45:43.709Z,60.37
2022-09-21T04:46:43.700Z,60.47
2022-09-21T04:47:43.670Z,60.47
2022-09-21T04:48:43.659Z,60.47
2022-09-21T04:49:43.657Z,60.58
2022-09-21T04:50:43.641Z,60.78
2022-09-21T04:51:43.634Z,60.68
2022-09-21T04:52:43.639Z,60.91
2022-09-21T04:53:43.610Z,60.81
2022-09-21T04:54:43.597Z,60.81
2022-09-21T04:55:43.598Z,60.47
2022-09-21T04:56:43.577Z,60.47
2022-09-21T04:57:43.589Z,60.47
2022-09-21T04:58:43.549Z,60.37
2022-09-21T04:59:43.539Z,60.58
2022-09-21T05:00:43.580Z,60.58
2022-09-21T05:01:43.695Z,60.89
2022-09-21T05:02:43.509Z,61.20
2022-09-21T05:03:43.615Z,61.10
2022-09-21T05:04:47.497Z,61.20
2022-09-21T05:05:44.486Z,61.33
2022-09-21T05:06:43.460Z,61.02
2022-09-21T05:07:43.457Z,61.22
2022-09-21T05:08:43.439Z,61.33
2022-09-21T05:09:43.448Z,61.33
2022-09-21T05:10:43.420Z,61.54
2022-09-21T05:11:43.408Z,61.22
2022-09-21T05:12:43.397Z,61.02
2022-09-21T05:13:43.387Z,61.33
2022-09-21T05:14:43.389Z,61.33
2022-09-21T05:15:43.397Z,61.33
2022-09-21T05:16:43.347Z,61.43
2022-09-21T05:17:43.338Z,61.54
2022-09-21T05:18:43.328Z,61.64
2022-09-21T05:19:43.319Z,62.05
2022-09-21T05:20:43.328Z,61.85
2022-09-21T05:21:43.298Z,61.77
2022-09-21T05:22:43.279Z,61.74
2022-09-21T05:23:43.277Z,61.85
2022-09-21T05:24:43.260Z,61.95
2022-09-21T05:25:43.266Z,62.05
2022-09-21T05:26:43.258Z,62.08
2022-09-21T05:27:43.227Z,62.05
2022-09-21T05:28:43.217Z,61.74
2022-09-21T05:29:43.207Z,62.05
2022-09-21T05:30:56.251Z,62.16
2022-09-21T05:31:44.269Z,62.26
2022-09-21T05:32:43.177Z,62.26
2022-09-21T05:33:43.169Z,62.05
2022-09-21T05:34:43.156Z,62.37
2022-09-21T05:35:43.155Z,62.77
2022-09-21T05:36:43.126Z,62.67
2022-09-21T05:37:43.147Z,62.57
2022-09-21T05:38:43.107Z,62.67
2022-09-21T05:39:43.097Z,63.12
2022-09-21T05:40:43.102Z,63.01
2022-09-21T05:41:43.081Z,63.22
2022-09-21T05:42:43.067Z,63.32
2022-09-21T05:43:43.075Z,63.22
2022-09-21T05:44:43.046Z,63.22
2022-09-21T05:45:47.230Z,63.01
2022-09-21T05:46:43.017Z,63.19
2022-09-21T05:47:43.014Z,62.77
2022-09-21T05:48:43.019Z,62.57
2022-09-21T05:49:42.997Z,63.09
2022-09-21T05:50:42.978Z,62.98
2022-09-21T05:51:42.968Z,62.65
2022-09-21T05:52:42.956Z,63.06
2022-09-21T05:53:42.945Z,63.06
2022-09-21T05:54:42.956Z,63.06
2022-09-21T05:55:42.935Z,63.26
2022-09-21T05:56:42.908Z,63.89
2022-09-21T05:57:42.904Z,63.57
2022-09-21T05:58:42.885Z,63.89
2022-09-21T05:59:42.884Z,63.89
2022-09-21T06:00:42.904Z,64.09
2022-09-21T06:01:42.900Z,64.51
2022-09-21T06:02:42.884Z,64.61
2022-09-21T06:03:42.828Z,64.71
2022-09-21T06:04:42.826Z,64.81
2022-09-21T06:05:42.842Z,65.12
2022-09-21T06:06:42.803Z,65.23
2022-09-21T06:07:42.793Z,65.23
2022-09-21T06:08:42.775Z,65.23
2022-09-21T06:09:43.394Z,65.44
2022-09-21T06:10:42.755Z,65.23
2022-09-21T06:11:42.755Z,64.89
2022-09-21T06:12:42.743Z,65.09
2022-09-21T06:13:42.724Z,64.58
2022-09-21T06:14:42.714Z,64.03
2022-09-21T06:15:42.706Z,64.24
2022-09-21T06:16:42.744Z,64.55
2022-09-21T06:17:42.695Z,64.52
2022-09-21T06:18:42.666Z,64.00
2022-09-21T06:19:42.654Z,64.39
2022-09-21T06:20:42.646Z,64.59
2022-09-21T06:21:42.624Z,65.18
2022-09-21T06:22:42.654Z,65.80
2022-09-21T06:23:42.605Z,65.36
2022-09-21T06:24:42.594Z,66.94
2022-09-21T06:25:42.636Z,72.00
2022-09-21T06:26:42.574Z,84.42
2022-09-21T06:27:42.554Z,89.54
2022-09-21T06:28:42.574Z,99.99
2022-09-21T06:29:42.536Z,99.99
2022-09-21T06:30:42.637Z,99.99
2022-09-21T06:31:42.514Z,99.99
2022-09-21T06:32:42.505Z,98.31
2022-09-21T06:33:46.151Z,95.96
2022-09-21T06:34:43.504Z,95.20
2022-09-21T06:35:42.507Z,93.37
2022-09-21T06:36:42.461Z,92.55
2022-09-21T06:37:42.446Z,95.31
2022-09-21T06:38:42.434Z,92.91
2022-09-21T06:39:42.444Z,91.49
2022-09-21T06:40:42.467Z,89.20
2022-09-21T06:41:42.394Z,86.82
2022-09-21T06:42:42.395Z,86.71
2022-09-21T06:43:42.375Z,83.72
2022-09-21T06:44:42.365Z,84.12
2022-09-21T06:45:42.457Z,84.09
2022-09-21T06:46:42.355Z,79.27
2022-09-21T06:47:42.334Z,79.71
2022-09-21T06:48:42.325Z,84.11
2022-09-21T06:49:42.615Z,78.38
2022-09-21T06:50:42.295Z,76.21
2022-09-21T06:51:42.297Z,74.38
2022-09-21T06:52:42.275Z,74.62
2022-09-21T06:53:42.264Z,72.65
2022-09-21T06:54:42.255Z,70.39
2022-09-21T06:55:42.255Z,71.00
2022-09-21T06:56:42.246Z,72.65
2022-09-21T06:57:42.215Z,69.27
2022-09-21T06:58:42.206Z,67.69
2022-09-21T06:59:42.195Z,66.41
2022-09-21T07:00:42.248Z,64.12
2022-09-21T07:01:42.317Z,64.69
2022-09-21T07:02:42.186Z,65.22
2022-09-21T07:03:42.146Z,66.27
2022-09-21T07:04:42.138Z,67.03
2022-09-21T07:05:42.137Z,69.24
2022-09-21T07:06:42.160Z,67.99
2022-09-21T07:07:42.099Z,67.38
2022-09-21T07:10:06.501Z,67.18
2022-09-21T07:10:43.067Z,68.36
2022-09-21T07:11:42.067Z,67.11
2022-09-21T07:12:42.047Z,66.98
2022-09-21T07:13:42.039Z,65.73
2022-09-21T07:14:42.107Z,65.53
2022-09-21T07:15:42.030Z,63.78
2022-09-21T07:16:42.073Z,64.76
2022-09-21T07:17:41.988Z,66.17
2022-09-21T07:18:43.545Z,65.80
2022-09-21T07:19:41.967Z,65.77
2022-09-21T07:20:41.969Z,64.76
2022-09-21T07:21:41.939Z,65.39
2022-09-21T07:22:41.930Z,65.80
2022-09-21T07:23:41.919Z,66.71
2022-09-21T07:24:41.910Z,66.47
2022-09-21T07:25:41.980Z,65.64
2022-09-21T07:26:41.896Z,64.42
2022-09-21T07:27:41.870Z,64.22
2022-09-21T07:28:41.862Z,64.42
2022-09-21T07:29:41.851Z,64.39
2022-09-21T07:30:41.840Z,63.76
2022-09-21T07:31:41.907Z,63.12
2022-09-21T07:32:41.821Z,61.35
2022-09-21T07:33:41.801Z,61.57
2022-09-21T07:34:41.792Z,62.21
2022-09-21T07:35:41.811Z,62.74
2022-09-21T07:36:41.781Z,63.28
2022-09-21T07:37:41.777Z,63.89
2022-09-21T07:38:41.752Z,63.65
2022-09-21T07:39:41.732Z,63.25
2022-09-21T07:40:41.762Z,63.96
2022-09-21T07:41:48.767Z,62.08
2022-09-21T07:42:41.727Z,62.85
2022-09-21T07:43:41.696Z,63.48
2022-09-21T07:44:41.679Z,64.79
2022-09-21T07:45:41.695Z,65.00
2022-09-21T07:46:47.773Z,65.34
2022-09-21T07:47:42.672Z,62.95
2022-09-21T07:48:41.637Z,63.99
2022-09-21T07:49:41.630Z,65.30
2022-09-21T07:50:41.621Z,64.53
2022-09-21T07:51:41.609Z,63.39
2022-09-21T07:52:41.589Z,61.92
2022-09-21T07:53:41.603Z,60.98
2022-09-21T07:54:41.581Z,60.65
2022-09-21T07:55:41.574Z,59.95
2022-09-21T07:56:41.550Z,59.84
2022-09-21T07:57:41.620Z,59.67
2022-09-21T07:58:41.551Z,61.65
2022-09-21T07:59:41.514Z,62.76
2022-09-21T08:00:41.603Z,61.82
2022-09-21T08:01:41.496Z,61.29
2022-09-21T08:02:46.655Z,61.75
2022-09-21T08:03:42.492Z,63.29
2022-09-21T08:04:41.468Z,63.59
2022-09-21T08:05:41.472Z,61.92
2022-09-21T08:06:41.433Z,61.72
2022-09-21T08:07:41.423Z,61.39
2022-09-21T08:08:41.413Z,61.05
2022-09-21T08:09:41.422Z,61.11
2022-09-21T08:10:41.394Z,61.39
2022-09-21T08:11:41.376Z,61.75
2022-09-21T08:12:41.374Z,63.93
2022-09-21T08:13:41.364Z,63.70
2022-09-21T08:14:41.348Z,63.23
2022-09-21T08:15:49.200Z,61.39
2022-09-21T08:16:42.365Z,61.39
2022-09-21T08:17:41.306Z,61.55
2022-09-21T08:18:41.305Z,63.22
2022-09-21T08:19:41.293Z,64.36
2022-09-21T08:20:41.296Z,63.70
2022-09-21T08:21:41.266Z,63.36
2022-09-21T08:22:41.246Z,62.37
2022-09-21T08:23:41.253Z,60.60
2022-09-21T08:24:41.227Z,59.23
2022-09-21T08:25:41.237Z,58.12
2022-09-21T08:26:41.228Z,57.82
2022-09-21T08:27:41.197Z,57.50
2022-09-21T08:28:41.178Z,57.79
2022-09-21T08:29:41.169Z,58.40
2022-09-21T08:30:41.168Z,57.44
2022-09-21T08:31:41.204Z,56.08
2022-09-21T08:32:51.187Z,55.32
2022-09-21T08:33:42.121Z,55.20
2022-09-21T08:34:41.119Z,53.77
2022-09-21T08:35:41.120Z,53.34
2022-09-21T08:36:41.178Z,52.22
2022-09-21T08:37:41.108Z,52.62
2022-09-21T08:38:41.073Z,52.32
2022-09-21T08:39:41.062Z,52.09
2022-09-21T08:40:41.105Z,51.82
2022-09-21T08:41:41.044Z,52.62
2022-09-21T08:42:41.025Z,52.09
2022-09-21T08:43:41.042Z,51.22
2022-09-21T08:44:41.001Z,52.12
2022-09-21T08:45:41.011Z,52.12
2022-09-21T08:46:41.037Z,52.52
2022-09-21T08:47:40.965Z,52.12
2022-09-21T08:48:40.963Z,52.39
2022-09-21T08:49:40.966Z,51.37
2022-09-21T08:50:41.077Z,49.95
2022-09-21T08:51:40.943Z,50.09
2022-09-21T08:52:41.185Z,51.39
2022-09-21T08:53:40.903Z,52.27
2022-09-21T08:54:40.916Z,53.27
2022-09-21T08:55:40.895Z,52.34
2022-09-21T08:57:01.045Z,52.74
2022-09-21T08:57:41.853Z,52.00
2022-09-21T08:58:40.845Z,51.29
2022-09-21T08:59:40.835Z,51.69
2022-09-21T09:00:40.873Z,52.34
2022-09-21T09:01:40.849Z,52.87
2022-09-21T09:02:40.805Z,54.15
2022-09-21T09:03:41.760Z,55.20
2022-09-21T09:04:40.786Z,55.83
2022-09-21T09:05:40.807Z,57.29
2022-09-21T09:06:40.760Z,58.40
2022-09-21T09:07:40.752Z,58.29
2022-09-21T09:08:40.738Z,57.87
2022-09-21T09:09:40.719Z,57.46
2022-09-21T09:10:40.718Z,57.01
2022-09-21T09:11:40.718Z,55.47
2022-09-21T09:12:40.699Z,56.43
2022-09-21T09:13:40.679Z,57.26
2022-09-21T09:14:40.671Z,58.95
2022-09-21T09:15:40.669Z,60.12
2022-09-21T09:16:40.655Z,60.96
2022-09-21T09:17:40.651Z,60.72
2022-09-21T09:18:43.541Z,60.60
2022-09-21T09:19:40.620Z,59.23
2022-09-21T09:20:40.601Z,58.37
2022-09-21T09:21:40.594Z,57.94
2022-09-21T09:22:40.579Z,56.74
2022-09-21T09:23:40.581Z,58.12
2022-09-21T09:24:40.552Z,60.28
2022-09-21T09:25:40.603Z,62.59
2022-09-21T09:26:40.533Z,64.67
2022-09-21T09:27:40.533Z,66.11
2022-09-21T09:28:40.542Z,67.46
2022-09-21T09:29:40.503Z,67.96
2022-09-21T09:30:40.492Z,68.13
2022-09-21T09:31:40.555Z,67.43
2022-09-21T09:32:40.472Z,67.43
2022-09-21T09:33:40.465Z,67.25
2022-09-21T09:34:40.463Z,68.16
2022-09-21T09:35:40.447Z,68.19
2022-09-21T09:36:57.786Z,67.59
2022-09-21T09:37:41.404Z,67.42
2022-09-21T09:38:40.426Z,68.97
2022-09-21T09:39:40.402Z,68.97
2022-09-21T09:40:40.428Z,69.37
2022-09-21T09:41:40.364Z,69.14
2022-09-21T09:42:40.354Z,69.51
2022-09-21T09:43:40.335Z,68.57
2022-09-21T09:44:40.335Z,65.91
2022-09-21T09:45:40.404Z,64.62
2022-09-21T09:46:40.365Z,64.62
2022-09-21T09:47:40.287Z,65.73
2022-09-21T09:48:40.283Z,65.40
2022-09-21T09:49:40.275Z,66.11
2022-09-21T09:50:40.255Z,66.24
2022-09-21T09:51:40.270Z,67.18
2022-09-21T09:52:40.235Z,67.01
2022-09-21T09:53:40.226Z,66.71
2022-09-21T09:54:40.216Z,68.13
2022-09-21T09:55:40.220Z,69.61
2022-09-21T09:56:40.196Z,69.98
2022-09-21T09:57:40.206Z,69.07
2022-09-21T09:58:40.164Z,67.96
2022-09-21T09:59:40.156Z,68.13
2022-09-21T10:00:40.138Z,66.72
2022-09-21T10:01:42.225Z,65.43
2022-09-21T10:02:40.118Z,67.66
2022-09-21T10:03:40.139Z,67.86
2022-09-21T10:04:40.162Z,68.03
2022-09-21T10:05:40.101Z,66.92
2022-09-21T10:06:45.193Z,65.91
2022-09-21T10:07:41.058Z,65.70
2022-09-21T10:08:40.063Z,65.30
2022-09-21T10:09:40.057Z,67.59
2022-09-21T10:10:40.035Z,65.80
2022-09-21T10:11:40.029Z,65.42
2022-09-21T10:12:40.017Z,64.44
2022-09-21T10:13:40.000Z,65.45
2022-09-21T10:14:40.021Z,66.80
2022-09-21T10:15:40.002Z,66.70
2022-09-21T10:16:39.966Z,68.66
2022-09-21T10:17:39.958Z,68.87
2022-09-21T10:18:39.940Z,68.46
2022-09-21T10:19:39.934Z,67.55
2022-09-21T10:20:39.942Z,69.88
2022-09-21T10:21:40.021Z,70.79
2022-09-21T10:22:39.898Z,69.17
2022-09-21T10:23:39.888Z,68.76
2022-09-21T10:24:39.869Z,69.37
2022-09-21T10:25:40.401Z,69.44
2022-09-21T10:26:39.869Z,68.90
2022-09-21T10:27:39.840Z,67.45
2022-09-21T10:28:39.837Z,67.14
2022-09-21T10:29:39.825Z,67.01
2022-09-21T10:30:39.811Z,65.90
2022-09-21T10:31:39.883Z,65.09
2022-09-21T10:32:39.796Z,66.10
2022-09-21T10:33:39.770Z,67.42
2022-09-21T10:34:39.750Z,67.76
2022-09-21T10:35:39.770Z,67.96
2022-09-21T10:36:39.733Z,68.87
2022-09-21T10:37:39.889Z,67.45
2022-09-21T10:38:39.708Z,66.24
2022-09-21T10:39:39.701Z,66.33
2022-09-21T10:40:39.820Z,66.24
2022-09-21T10:41:39.681Z,65.22
2022-09-21T10:42:39.660Z,66.10
2022-09-21T10:43:43.180Z,65.19
2022-09-21T10:44:39.643Z,66.07
2022-09-21T10:45:39.642Z,65.03
2022-09-21T10:46:39.752Z,63.01
2022-09-21T10:47:39.610Z,61.69
2022-09-21T10:48:39.628Z,61.19
2022-09-21T10:49:39.595Z,63.04
2022-09-21T10:50:39.571Z,63.17
2022-09-21T10:51:39.571Z,64.61
2022-09-21T10:52:39.552Z,65.02
2022-09-21T10:53:39.551Z,64.82
2022-09-21T10:54:39.563Z,65.02
2022-09-21T10:55:44.009Z,65.42
2022-09-21T10:56:40.502Z,66.13
2022-09-21T10:57:39.493Z,66.41
2022-09-21T10:58:39.493Z,66.50
2022-09-21T10:59:39.477Z,67.08
2022-09-21T11:00:39.483Z,66.04
2022-09-21T11:01:39.502Z,65.64
2022-09-21T11:02:39.541Z,65.20
2022-09-21T11:03:39.423Z,65.00
2022-09-21T11:04:39.415Z,64.79
2022-09-21T11:05:39.425Z,65.23
2022-09-21T11:06:39.413Z,64.32
2022-09-21T11:07:39.402Z,63.51
2022-09-21T11:08:39.373Z,64.32
2022-09-21T11:09:39.362Z,64.73
2022-09-21T11:10:39.366Z,64.90
2022-09-21T11:11:39.345Z,64.29
2022-09-21T11:12:39.343Z,63.89
2022-09-21T11:13:39.313Z,63.76
2022-09-21T11:14:39.298Z,63.05
2022-09-21T11:15:39.374Z,63.28
2022-09-21T11:16:39.294Z,63.96
2022-09-21T11:17:39.273Z,63.55
2022-09-21T11:18:39.396Z,64.06
2022-09-21T11:19:39.248Z,63.96
2022-09-21T11:20:39.233Z,63.55
2022-09-21T11:21:39.224Z,64.26
2022-09-21T11:22:39.215Z,65.78
2022-09-21T11:23:42.964Z,64.97
2022-09-21T11:24:39.187Z,65.34
2022-09-21T11:25:39.232Z,62.68
2022-09-21T11:26:39.198Z,62.01
2022-09-21T11:27:39.156Z,62.14
2022-09-21T11:28:39.154Z,62.67
2022-09-21T11:29:39.163Z,63.58
2022-09-21T11:30:39.178Z,63.99
2022-09-21T11:31:39.116Z,63.38
2022-09-21T11:32:39.106Z,63.21
2022-09-21T11:33:39.095Z,63.01
2022-09-21T11:34:39.086Z,63.41
2022-09-21T11:35:39.105Z,62.19
2022-09-21T11:36:39.055Z,63.31
2022-09-21T11:37:39.049Z,62.10
2022-09-21T11:38:43.148Z,61.79
2022-09-21T11:39:39.034Z,61.56
2022-09-21T11:40:39.053Z,62.57
2022-09-21T11:41:39.035Z,61.56
2022-09-21T11:42:38.992Z,60.25
2022-09-21T11:43:38.987Z,62.07
2022-09-21T11:44:38.964Z,60.22
2022-09-21T11:45:39.052Z,61.03
2022-09-21T11:46:38.955Z,61.23
2022-09-21T11:47:38.967Z,59.91
2022-09-21T11:48:38.935Z,59.21
2022-09-21T11:49:38.916Z,59.81
2022-09-21T11:50:38.911Z,60.22
2022-09-21T11:51:38.891Z,60.22
2022-09-21T11:52:38.877Z,60.22
2022-09-21T11:53:38.887Z,60.09
2022-09-21T11:54:38.847Z,59.58
2022-09-21T11:55:38.858Z,60.09
2022-09-21T11:56:38.836Z,56.65
2022-09-21T11:57:38.830Z,56.35
2022-09-21T11:58:38.840Z,56.27
2022-09-21T11:59:38.829Z,55.98
2022-09-21T12:00:38.787Z,56.68
2022-09-21T12:01:38.781Z,56.68
2022-09-21T12:02:38.943Z,55.77
2022-09-21T12:03:38.767Z,55.44
2022-09-21T12:04:38.768Z,55.44
2022-09-21T12:05:38.741Z,54.33
2022-09-21T12:06:38.720Z,54.13
2022-09-21T12:07:38.710Z,51.61
2022-09-21T12:08:38.753Z,53.12
2022-09-21T12:09:38.689Z,53.22
2022-09-21T12:10:38.700Z,52.72
2022-09-21T12:11:38.678Z,52.61
2022-09-21T12:12:38.661Z,52.21
2022-09-21T12:13:38.649Z,52.92
2022-09-21T12:15:38.653Z,51.07
2022-09-21T12:16:38.646Z,51.35
2022-09-21T12:17:38.630Z,51.86
2022-09-21T12:18:41.413Z,50.04
2022-09-21T12:19:39.590Z,51.45
2022-09-21T12:20:38.572Z,51.86
2022-09-21T12:21:38.580Z,52.44
2022-09-21T12:22:38.540Z,51.43
2022-09-21T12:23:38.553Z,51.33
2022-09-21T12:24:38.530Z,50.82
2022-09-21T12:25:38.541Z,51.93
2022-09-21T12:26:38.512Z,50.62
2022-09-21T12:27:38.641Z,51.64
2022-09-21T12:28:38.482Z,51.13
2022-09-21T12:29:38.471Z,50.93
2022-09-21T12:30:38.533Z,52.44
2022-09-21T12:31:38.451Z,52.74
2022-09-21T12:32:38.432Z,53.25
2022-09-21T12:33:38.581Z,52.04
2022-09-21T12:34:38.415Z,51.31
2022-09-21T12:35:38.524Z,51.13
2022-09-21T12:36:41.095Z,51.43
2022-09-21T12:37:38.392Z,51.93
2022-09-21T12:38:38.398Z,51.53
2022-09-21T12:39:38.363Z,51.84
2022-09-21T12:40:38.395Z,51.96
2022-09-21T12:41:38.345Z,52.76
2022-09-21T12:42:38.323Z,51.18
2022-09-21T12:43:38.324Z,51.48
2022-09-21T12:44:40.740Z,51.18
2022-09-21T12:45:38.419Z,52.29
2022-09-21T12:46:38.309Z,52.26
2022-09-21T12:47:38.273Z,53.27
2022-09-21T12:48:38.265Z,52.06
2022-09-21T12:49:38.275Z,53.05
2022-09-21T12:50:38.254Z,53.34
2022-09-21T12:51:38.243Z,52.04
2022-09-21T12:52:38.245Z,52.01
2022-09-21T12:53:38.310Z,52.31
2022-09-21T12:54:38.527Z,52.11